Time;durP1;ratioP1;P1;durP2;ratioP2;P2;SDS_P1;SDS_P2;PMS_P1;PMS_P2;Temp;Humidity;BMP_temperature;BMP_pressure;BME280_temperature;BME280_humidity;BME280_pressure;Samples;Min_cycle;Max_cycle;Signal;HPM_P1;HPM_P2
2021/03/02 00:00:18;;;;;;;43.70;9.93;;;;;;;0.79;100.00;102772.03;4992653;28;20030;-68
2021/03/02 00:02:44;;;;;;;35.93;9.40;;;;;;;0.73;100.00;102763.84;4990935;28;20376;-68
2021/03/02 00:05:11;;;;;;;46.63;11.37;;;;;;;0.73;100.00;102771.59;4990129;28;20380;-67
2021/03/02 00:07:38;;;;;;;45.07;8.60;;;;;;;0.71;100.00;102773.13;4988840;28;20026;-68
2021/03/02 00:10:09;;;;;;;41.47;9.60;;;;;;;0.70;100.00;102784.19;4994351;28;20317;-68
2021/03/02 00:12:35;;;;;;;40.73;10.47;;;;;;;0.68;100.00;102768.66;4993396;28;20285;-68
2021/03/02 00:15:01;;;;;;;35.77;8.47;;;;;;;0.74;100.00;102773.38;4993979;28;20277;-67
2021/03/02 00:17:36;;;;;;;30.07;8.43;;;;;;;0.73;100.00;102776.72;4990332;28;20288;-67
2021/03/02 00:20:08;;;;;;;42.33;9.87;;;;;;;0.71;100.00;102780.84;4995320;28;20197;-67
2021/03/02 00:22:53;;;;;;;37.75;8.55;;;;;;;0.67;100.00;102776.25;4991904;28;20289;-67
2021/03/02 00:25:19;;;;;;;31.30;8.43;;;;;;;0.65;100.00;102775.25;4994137;28;20386;-67
2021/03/02 00:27:45;;;;;;;33.13;8.63;;;;;;;0.65;100.00;102764.94;4991386;28;20301;-67
2021/03/02 00:30:12;;;;;;;34.67;8.37;;;;;;;0.68;100.00;102767.75;4994356;28;20297;-67
2021/03/02 00:32:38;;;;;;;37.67;8.87;;;;;;;0.65;100.00;102764.94;4987031;28;20084;-68
2021/03/02 00:35:05;;;;;;;29.50;7.93;;;;;;;0.64;100.00;102768.31;4995100;28;20673;-67
2021/03/02 00:37:30;;;;;;;29.93;8.77;;;;;;;0.59;100.00;102773.09;4993749;28;20359;-68
2021/03/02 00:39:56;;;;;;;33.83;8.60;;;;;;;0.52;100.00;102765.72;4994286;28;20317;-68
2021/03/02 00:42:21;;;;;;;40.70;8.90;;;;;;;0.52;100.00;102771.75;4994098;28;20024;-68
2021/03/02 00:44:47;;;;;;;25.97;8.00;;;;;;;0.58;100.00;102772.19;4993387;28;20037;-67
2021/03/02 00:47:12;;;;;;;36.70;7.87;;;;;;;0.60;100.00;102769.72;4993865;28;20144;-69
2021/03/02 00:49:37;;;;;;;35.60;7.97;;;;;;;0.56;100.00;102773.75;4993838;28;20475;-68
2021/03/02 00:52:03;;;;;;;40.30;9.33;;;;;;;0.61;100.00;102771.56;4994334;28;20053;-68
2021/03/02 00:54:28;;;;;;;50.23;9.20;;;;;;;0.63;100.00;102774.25;4993444;28;20462;-68
2021/03/02 00:56:54;;;;;;;39.30;9.80;;;;;;;0.65;100.00;102763.28;4991070;28;20026;-68
2021/03/02 00:59:19;;;;;;;34.70;9.00;;;;;;;0.68;100.00;102767.75;4992846;28;20378;-68
2021/03/02 01:01:45;;;;;;;35.73;8.03;;;;;;;0.61;100.00;102765.47;4993721;28;20433;-68
2021/03/02 01:04:10;;;;;;;42.07;9.30;;;;;;;0.64;100.00;102765.75;4993264;28;20044;-68
2021/03/02 01:06:36;;;;;;;32.67;8.17;;;;;;;0.60;100.00;102756.88;4993585;28;20027;-68
2021/03/02 01:09:06;;;;;;;25.23;7.33;;;;;;;0.64;100.00;102748.59;4993849;28;20026;-68
2021/03/02 01:11:32;;;;;;;34.27;8.20;;;;;;;0.65;100.00;102754.66;4993696;28;20034;-68
2021/03/02 01:13:57;;;;;;;29.93;7.63;;;;;;;0.68;100.00;102752.31;4995127;28;20272;-68
2021/03/02 01:16:23;;;;;;;32.83;7.87;;;;;;;0.64;100.00;102750.28;4993812;28;20030;-68
2021/03/02 01:18:48;;;;;;;29.50;8.50;;;;;;;0.63;100.00;102749.41;4993066;28;20026;-68
2021/03/02 01:21:14;;;;;;;32.80;8.93;;;;;;;0.59;100.00;102739.63;4992668;28;20030;-68
2021/03/02 01:23:39;;;;;;;40.20;8.70;;;;;;;0.61;100.00;102739.75;4994600;28;20156;-69
2021/03/02 01:26:05;;;;;;;32.73;8.20;;;;;;;0.51;100.00;102733.94;5000780;28;20068;-69
2021/03/02 01:28:30;;;;;;;36.50;8.97;;;;;;;0.52;100.00;102747.69;4991313;28;20430;-68
2021/03/02 01:30:56;;;;;;;28.13;8.50;;;;;;;0.57;100.00;102729.22;4992456;28;20445;-68
2021/03/02 01:33:21;;;;;;;33.70;7.97;;;;;;;0.59;100.00;102732.81;4987334;28;20080;-68
2021/03/02 01:35:46;;;;;;;34.93;8.70;;;;;;;0.57;100.00;102733.47;4993369;28;20015;-68
2021/03/02 01:38:12;;;;;;;34.27;9.90;;;;;;;0.52;100.00;102730.56;4991787;28;20033;-68
2021/03/02 01:40:37;;;;;;;40.03;9.30;;;;;;;0.45;100.00;102730.88;4992437;28;20033;-68
2021/03/02 01:43:03;;;;;;;30.60;8.50;;;;;;;0.50;100.00;102727.00;4993160;28;20478;-69
2021/03/02 01:45:28;;;;;;;32.40;8.13;;;;;;;0.54;100.00;102718.72;4993403;28;20037;-68
2021/03/02 01:47:54;;;;;;;36.03;9.37;;;;;;;0.50;100.00;102710.66;4992875;28;20117;-68
2021/03/02 01:50:22;;;;;;;33.67;8.50;;;;;;;0.50;100.00;102711.56;4993398;28;20041;-68
2021/03/02 01:52:47;;;;;;;35.73;8.87;;;;;;;0.52;100.00;102715.13;4992465;28;20033;-68
2021/03/02 01:55:16;;;;;;;41.70;9.93;;;;;;;0.55;100.00;102720.50;4994057;28;20324;-68
2021/03/02 01:57:41;;;;;;;37.90;9.63;;;;;;;0.52;100.00;102715.13;4991543;28;20034;-68
2021/03/02 02:02:48;;;;;;;33.87;9.13;;;;;;;0.48;100.00;102713.09;5020963;23;20054;-90
2021/03/02 02:05:17;;;;;;;30.97;8.60;;;;;;;0.39;100.00;102712.44;5014446;28;20277;-90
2021/03/02 02:07:51;;;;;;;30.33;8.70;;;;;;;0.29;100.00;102709.94;5011632;28;20280;-90
2021/03/02 02:10:50;;;;;;;39.43;9.00;;;;;;;0.13;100.00;102709.56;5006470;28;20288;-90
2021/03/02 02:13:33;;;;;;;37.63;9.17;;;;;;;0.01;100.00;102703.50;5010477;28;20288;-90
2021/03/02 02:16:07;;;;;;;36.70;8.55;;;;;;;0.05;100.00;102714.13;5016537;28;20291;-90
2021/03/02 02:18:43;;;;;;;32.27;8.73;;;;;;;-0.05;100.00;102697.06;5015322;28;20029;-90
2021/03/02 02:21:08;;;;;;;37.93;9.20;;;;;;;0.08;100.00;102713.44;5010092;28;20368;-90
2021/03/02 02:23:44;;;;;;;41.97;9.37;;;;;;;0.14;100.00;102709.69;5005890;28;20368;-90
2021/03/02 02:26:31;;;;;;;32.70;9.13;;;;;;;0.23;100.00;102700.06;5007065;28;20398;-90
2021/03/02 02:29:08;;;;;;;31.37;8.70;;;;;;;0.20;100.00;102704.97;5008730;28;20293;-90
2021/03/02 02:31:43;;;;;;;;;;;;;;;0.13;100.00;102702.75;5003709;28;20282;-90
2021/03/02 02:34:17;;;;;;;24.57;8.33;;;;;;;0.16;100.00;102691.78;5002567;28;19913;-90
2021/03/02 02:36:52;;;;;;;26.53;9.27;;;;;;;0.17;100.00;102688.44;5017726;28;20285;-90
2021/03/02 02:39:24;;;;;;;36.87;8.73;;;;;;;0.12;100.00;102689.75;5011505;28;20272;-90
2021/03/02 02:41:54;;;;;;;30.97;8.43;;;;;;;-0.04;100.00;102673.16;5015411;28;20335;-90
2021/03/02 02:44:23;;;;;;;32.30;8.53;;;;;;;0.10;100.00;102691.31;5015377;28;20346;-89
2021/03/02 02:46:54;;;;;;;36.80;10.07;;;;;;;0.11;100.00;102687.94;5015288;28;20768;-90
2021/03/02 02:49:20;;;;;;;36.10;10.07;;;;;;;0.13;100.00;102691.56;5011566;28;20291;-90
2021/03/02 02:51:46;;;;;;;34.13;10.70;;;;;;;0.22;100.00;102692.22;5013171;28;20268;-90
2021/03/02 02:54:13;;;;;;;34.37;9.73;;;;;;;0.30;100.00;102696.28;5009813;28;20281;-90
2021/03/02 02:56:43;;;;;;;31.40;8.70;;;;;;;0.38;100.00;102690.03;5013532;28;20030;-91
2021/03/02 02:59:17;;;;;;;29.30;9.80;;;;;;;0.34;100.00;102685.44;5009150;28;20291;-90
2021/03/02 03:01:52;;;;;;;32.67;9.13;;;;;;;0.33;100.00;102691.38;5011258;28;20304;-90
2021/03/02 03:04:30;;;;;;;32.93;10.27;;;;;;;0.39;100.00;102683.22;5006002;28;20328;-90
2021/03/02 03:07:08;;;;;;;32.30;10.10;;;;;;;0.42;100.00;102688.59;5011199;28;20280;-90
2021/03/02 03:10:00;;;;;;;30.90;9.07;;;;;;;0.37;100.00;102684.78;5013508;28;20309;-90
2021/03/02 03:12:37;;;;;;;27.37;8.70;;;;;;;0.32;100.00;102687.00;5014451;28;20277;-90
2021/03/02 03:15:14;;;;;;;31.03;9.90;;;;;;;0.36;100.00;102691.59;5011212;28;21106;-90
2021/03/02 03:17:57;;;;;;;34.93;9.40;;;;;;;0.39;100.00;102681.53;5011863;28;20281;-90
2021/03/02 03:20:28;;;;;;;36.87;10.30;;;;;;;0.33;100.00;102681.06;5010703;28;20285;-90
2021/03/02 03:23:01;;;;;;;29.27;7.83;;;;;;;0.31;100.00;102677.50;5013714;28;20281;-90
2021/03/02 03:25:51;;;;;;;31.70;9.20;;;;;;;0.44;100.00;102692.16;5009390;28;20293;-90
2021/03/02 03:28:24;;;;;;;27.80;8.67;;;;;;;0.42;100.00;102686.91;5007413;28;20439;-90
2021/03/02 03:30:56;;;;;;;31.13;10.60;;;;;;;0.29;100.00;102674.81;5005649;28;20296;-90
2021/03/02 03:33:30;;;;;;;36.65;9.73;;;;;;;0.39;100.00;102696.09;5009040;28;20292;-90
2021/03/02 03:36:20;;;;;;;24.47;8.03;;;;;;;0.36;100.00;102696.72;5012102;28;20080;-91
2021/03/02 03:38:57;;;;;;;27.40;8.63;;;;;;;0.39;100.00;102696.09;5004825;28;20280;-90
2021/03/02 03:41:28;;;;;;;28.93;10.27;;;;;;;0.23;100.00;102679.47;5017308;28;20335;-90
2021/03/02 03:43:59;;;;;;;35.00;8.77;;;;;;;0.30;100.00;102698.84;5010963;28;20269;-90
2021/03/02 03:46:29;;;;;;;35.97;10.43;;;;;;;0.27;100.00;102696.06;5016262;28;20284;-90
2021/03/02 03:49:00;;;;;;;40.40;10.47;;;;;;;0.23;100.00;102688.88;5009860;28;20633;-90
2021/03/02 03:51:34;;;;;;;36.80;9.67;;;;;;;0.15;100.00;102684.84;4996925;28;20312;-90
2021/03/02 03:54:10;;;;;;;30.87;10.07;;;;;;;0.20;100.00;102693.78;5012432;28;20269;-89
2021/03/02 03:56:44;;;;;;;34.47;8.87;;;;;;;0.18;100.00;102697.94;5016816;28;20280;-90
2021/03/02 03:59:20;;;;;;;32.07;9.00;;;;;;;0.19;100.00;102689.44;5018385;28;20275;-92
2021/03/02 04:01:52;;;;;;;32.77;9.87;;;;;;;0.06;100.00;102674.75;5013520;28;20304;-90
2021/03/02 04:04:52;;;;;;;33.70;10.57;;;;;;;0.14;100.00;102693.34;5007581;28;20387;-89
2021/03/02 04:07:23;;;;;;;27.85;9.07;;;;;;;0.15;100.00;102695.13;5010850;28;20042;-90
2021/03/02 04:09:50;;;;;;;32.70;11.30;;;;;;;-0.01;100.00;102688.81;5013368;28;20034;-90
2021/03/02 04:12:18;;;;;;;37.63;11.37;;;;;;;0.09;100.00;102697.22;5014367;28;20685;-90
2021/03/02 04:14:47;;;;;;;38.13;10.07;;;;;;;0.12;100.00;102690.66;5017030;28;20272;-89
2021/03/02 04:17:13;;;;;;;33.87;11.03;;;;;;;0.14;100.00;102693.34;5008028;28;20316;-90
2021/03/02 04:19:40;;;;;;;41.47;10.70;;;;;;;0.06;100.00;102679.00;5006452;28;20760;-89
2021/03/02 04:22:05;;;;;;;41.43;10.67;;;;;;;0.03;100.00;102699.34;5014367;28;20028;-90
2021/03/02 04:24:33;;;;;;;46.20;11.53;;;;;;;-0.03;100.00;102690.38;5015671;28;20746;-90
2021/03/02 04:26:58;;;;;;;38.37;10.83;;;;;;;-0.05;100.00;102685.91;5004259;28;20770;-90
2021/03/02 04:29:26;;;;;;;41.20;11.10;;;;;;;-0.11;100.00;102683.78;5009893;28;20745;-90
2021/03/02 04:31:55;;;;;;;48.17;12.17;;;;;;;-0.23;100.00;102685.41;5015583;28;20287;-90
2021/03/02 04:34:21;;;;;;;49.00;13.07;;;;;;;-0.38;100.00;102684.19;5010500;28;20272;-89
2021/03/02 04:36:48;;;;;;;50.73;11.77;;;;;;;-0.47;100.00;102678.38;5016412;28;20853;-90
2021/03/02 04:39:20;;;;;;;56.33;13.27;;;;;;;-0.52;100.00;102684.81;5010964;28;20762;-90
2021/03/02 04:41:51;;;;;;;55.33;11.83;;;;;;;-0.57;100.00;102681.00;5010237;28;20297;-89
2021/03/02 04:44:31;;;;;;;57.30;12.50;;;;;;;-0.62;100.00;102688.31;5013364;28;20292;-90
2021/03/02 04:47:10;;;;;;;54.83;13.77;;;;;;;-0.71;100.00;102685.94;5013279;28;20033;-90
2021/03/02 04:49:57;;;;;;;66.60;13.97;;;;;;;-0.72;100.00;102693.53;5013717;28;20277;-90
2021/03/02 04:52:34;;;;;;;78.63;14.47;;;;;;;-0.80;100.00;102681.75;5012928;28;20338;-89
2021/03/02 04:55:12;;;;;;;83.73;14.27;;;;;;;-0.75;100.00;102696.72;5006158;28;20814;-90
2021/03/02 04:58:00;;;;;;;85.37;14.30;;;;;;;-0.70;100.00;102680.03;5005300;28;20289;-90
2021/03/02 05:00:38;;;;;;;65.83;13.73;;;;;;;-0.61;100.00;102687.53;5012932;28;20641;-90
2021/03/02 05:03:07;;;;;;;73.47;13.23;;;;;;;-0.62;100.00;102689.22;5014001;28;20300;-90
2021/03/02 05:05:48;;;;;;;65.45;13.35;;;;;;;-0.61;100.00;102685.91;5012988;28;20335;-89
2021/03/02 05:08:14;;;;;;;80.87;12.67;;;;;;;-0.56;100.00;102701.66;5016541;28;20050;-89
2021/03/02 05:10:44;;;;;;;106.00;16.10;;;;;;;-0.60;100.00;102690.25;5012841;28;20445;-90
2021/03/02 05:13:12;;;;;;;87.53;13.43;;;;;;;-0.49;100.00;102695.31;5013139;28;20026;-90
2021/03/02 05:15:38;;;;;;;81.70;14.47;;;;;;;-0.54;100.00;102684.69;5011473;28;20305;-89
2021/03/02 05:18:04;;;;;;;93.43;13.60;;;;;;;-0.49;100.00;102690.16;5011557;28;20280;-90
2021/03/02 05:20:30;;;;;;;48.53;9.90;;;;;;;-0.52;100.00;102684.81;5014924;28;20311;-90
2021/03/02 05:22:59;;;;;;;46.30;10.47;;;;;;;-0.52;100.00;102689.94;5013806;28;20037;-90
2021/03/02 05:25:30;;;;;;;44.63;9.67;;;;;;;-0.49;100.00;102685.03;5016222;28;20077;-90
2021/03/02 05:27:55;;;;;;;66.50;11.07;;;;;;;-0.55;100.00;102689.72;5018939;28;20359;-90
2021/03/02 05:30:21;;;;;;;76.40;11.57;;;;;;;-0.58;100.00;102679.19;5014262;28;20363;-91
2021/03/02 05:32:47;;;;;;;75.30;12.27;;;;;;;-0.57;100.00;102683.56;5015732;28;20026;-91
2021/03/02 05:35:14;;;;;;;68.93;12.43;;;;;;;-0.65;100.00;102665.84;5013239;28;20296;-91
2021/03/02 05:37:40;;;;;;;61.87;10.83;;;;;;;-0.60;100.00;102676.50;5011719;28;20104;-90
2021/03/02 05:40:07;;;;;;;51.20;10.20;;;;;;;-0.60;100.00;102676.50;5007521;28;20327;-91
2021/03/02 05:42:35;;;;;;;35.87;9.10;;;;;;;-0.56;100.00;102687.91;5015201;28;20509;-90
2021/03/02 05:45:03;;;;;;;41.37;9.40;;;;;;;-0.66;100.00;102665.75;5013995;28;20669;-90
2021/03/02 05:47:34;;;;;;;34.13;7.50;;;;;;;-0.68;100.00;102668.19;5010681;28;20279;-90
2021/03/02 05:50:06;;;;;;;37.17;9.40;;;;;;;-0.66;100.00;102676.91;5012536;28;20362;-91
2021/03/02 05:52:32;;;;;;;45.33;10.50;;;;;;;-0.67;100.00;102680.25;5011685;28;20033;-91
2021/03/02 05:55:02;;;;;;;41.77;10.10;;;;;;;-0.67;100.00;102669.97;5014999;28;20312;-90
2021/03/02 05:57:36;;;;;;;65.37;10.80;;;;;;;-0.66;100.00;102687.19;5013267;28;20344;-91
2021/03/02 06:00:05;;;;;;;50.53;10.63;;;;;;;-0.68;100.00;102681.03;5011307;28;20409;-90
2021/03/02 06:02:36;;;;;;;40.60;9.15;;;;;;;-0.68;100.00;102683.59;5005750;28;20665;-91
2021/03/02 06:05:09;;;;;;;48.57;11.47;;;;;;;-0.82;100.00;102658.50;5010772;28;20030;-90
2021/03/02 06:07:36;;;;;;;43.73;9.03;;;;;;;-0.82;100.00;102655.94;5014670;28;20844;-90
2021/03/02 06:10:05;;;;;;;39.17;10.67;;;;;;;-0.71;100.00;102682.47;5007139;28;20277;-90
2021/03/02 06:12:55;;;;;;;37.90;9.03;;;;;;;-0.68;100.00;102681.03;5012134;28;20287;-89
2021/03/02 06:15:25;;;;;;;37.87;9.83;;;;;;;-0.80;100.00;102662.09;5002847;28;20261;-90
2021/03/02 06:18:15;;;;;;;;;;;;;;;-0.69;100.00;102681.81;5015497;28;20275;-91
2021/03/02 06:20:52;;;;;;;29.83;7.83;;;;;;;-0.75;100.00;102670.16;5011195;28;20412;-91
2021/03/02 06:23:48;;;;;;;44.47;10.20;;;;;;;-0.74;100.00;102687.34;5013555;28;20285;-91
2021/03/02 06:26:25;;;;;;;44.20;9.73;;;;;;;-0.76;100.00;102692.38;5009231;28;20296;-91
2021/03/02 06:29:01;;;;;;;52.40;10.77;;;;;;;-0.91;100.00;102660.34;5013049;28;20285;-91
2021/03/02 06:31:46;;;;;;;50.27;11.87;;;;;;;-0.73;100.00;102694.28;5019951;28;20273;-92
2021/03/02 06:34:37;;;;;;;43.17;10.80;;;;;;;-0.92;100.00;102656.88;5011683;28;20320;-91
2021/03/02 06:37:06;;;;;;;47.67;10.33;;;;;;;-0.89;100.00;102664.81;5011079;28;20281;-91
2021/03/02 06:39:41;;;;;;;53.87;10.20;;;;;;;-0.80;100.00;102664.66;5013118;28;20336;-91
2021/03/02 06:42:22;;;;;;;37.43;8.90;;;;;;;-0.66;100.00;102687.19;5009735;28;20021;-91
2021/03/02 06:45:13;;;;;;;40.77;9.77;;;;;;;-0.66;100.00;102687.19;5002595;28;20290;-91
2021/03/02 06:47:44;;;;;;;57.33;10.40;;;;;;;-0.68;100.00;102687.84;5013210;28;20288;-92
2021/03/02 06:50:36;;;;;;;34.30;7.03;;;;;;;-0.68;100.00;102681.03;5003340;28;20708;-91
2021/03/02 06:53:18;;;;;;;47.43;9.83;;;;;;;-0.75;100.00;102665.91;5011495;28;20291;-90
2021/03/02 06:56:12;;;;;;;73.32;13.32;;;;;;;-0.68;100.00;102665.63;5011589;28;20733;-92
2021/03/02 06:59:14;;;;;;;45.85;8.73;;;;;;;-0.53;100.00;102689.03;5017391;28;20351;-92
2021/03/02 07:01:53;;;;;;;24.27;6.97;;;;;;;-0.58;100.00;102674.94;5007080;28;20050;-91
2021/03/02 07:04:25;;;;;;;34.13;7.93;;;;;;;-0.57;100.00;102679.31;5010654;28;20827;-91
2021/03/02 07:07:04;;;;;;;32.50;8.17;;;;;;;-0.45;100.00;102693.13;5009457;28;20303;-91
2021/03/02 07:09:31;;;;;;;35.20;7.93;;;;;;;-0.46;100.00;102695.56;5013921;28;20308;-91
2021/03/02 07:12:34;;;;;;;47.37;9.13;;;;;;;-0.47;100.00;102709.19;5013823;28;20287;-92
2021/03/02 07:15:26;;;;;;;23.83;5.97;;;;;;;-0.44;100.00;102709.44;5012039;28;20273;-92
2021/03/02 07:18:08;;;;;;;27.83;6.90;;;;;;;-0.50;100.00;102708.94;5011853;28;20742;-92
2021/03/02 07:21:18;;;;;;;35.70;9.30;;;;;;;-0.42;100.00;102715.59;5013136;28;20260;-92
2021/03/02 07:24:09;;;;;;;39.90;8.47;;;;;;;-0.38;100.00;102709.91;5008220;28;20277;-92
2021/03/02 07:26:36;;;;;;;41.27;9.53;;;;;;;-0.39;100.00;102697.81;5004040;28;20313;-91
2021/03/02 07:29:16;;;;;;;33.27;7.47;;;;;;;-0.36;100.00;102714.41;5018345;28;20375;-92
2021/03/02 07:31:51;;;;;;;48.50;8.32;;;;;;;-0.34;100.00;102710.28;5015215;28;20427;-92
2021/03/02 07:34:31;;;;;;;43.50;8.30;;;;;;;-0.27;100.00;102714.19;5001872;28;20038;-92
2021/03/02 07:37:26;;;;;;;38.77;8.93;;;;;;;-0.29;100.00;102708.03;5019508;28;20288;-92
2021/03/02 07:40:20;;;;;;;30.67;8.73;;;;;;;-0.11;100.00;102727.47;5015090;28;20287;-92
2021/03/02 07:42:57;;;;;;;30.97;7.07;;;;;;;-0.15;100.00;102725.44;5006457;28;20273;-92
2021/03/02 07:45:33;;;;;;;51.30;9.17;;;;;;;-0.30;100.00;102701.13;4998848;28;20435;-92
2021/03/02 07:48:04;;;;;;;30.33;8.47;;;;;;;-0.13;100.00;102729.00;5003421;28;20397;-91
2021/03/02 07:50:34;;;;;;;28.93;7.07;;;;;;;-0.25;100.00;102707.50;5016576;28;21017;-92
2021/03/02 07:53:31;;;;;;;23.53;6.23;;;;;;;-0.28;100.00;102708.94;5014298;28;20327;-92
2021/03/02 07:56:53;;;;;;;32.97;7.93;;;;;;;-0.15;100.00;102707.44;5014674;28;20291;-92
2021/03/02 07:59:44;;;;;;;42.57;8.90;;;;;;;0.01;100.00;102731.78;4999773;28;20263;-92
2021/03/02 08:02:49;;;;;;;47.43;8.60;;;;;;;0.06;100.00;102733.91;5011170;28;20338;-92
2021/03/02 08:05:48;;;;;;;35.83;8.10;;;;;;;0.15;100.00;102744.00;5013421;28;20293;-92
2021/03/02 08:08:49;;;;;;;47.03;8.53;;;;;;;0.32;100.00;102737.56;5015720;28;20315;-92
2021/03/02 08:11:36;;;;;;;26.03;7.17;;;;;;;0.32;100.00;102724.69;5013025;28;20321;-92
2021/03/02 08:14:32;;;;;;;42.97;7.40;;;;;;;0.36;100.00;102732.75;5002638;28;20303;-92
2021/03/02 08:17:27;;;;;;;43.30;7.82;;;;;;;0.31;100.00;102722.91;5013756;28;20269;-92
2021/03/02 08:20:10;;;;;;;25.73;7.33;;;;;;;0.45;100.00;102750.56;5000832;28;20034;-92
2021/03/02 08:22:47;;;;;;;24.52;7.63;;;;;;;0.66;100.00;102743.56;5005519;28;20272;-91
2021/03/02 08:25:39;;;;;;;;;;;;;;;0.76;100.00;102746.06;5008390;28;20030;-92
2021/03/02 08:28:22;;;;;;;21.90;6.57;;;;;;;0.66;100.00;102717.81;5010633;28;20405;-92
2021/03/02 08:31:12;;;;;;;25.50;6.27;;;;;;;0.82;100.00;102741.34;5003528;28;20265;-91
2021/03/02 08:34:21;;;;;;;25.50;6.93;;;;;;;0.69;100.00;102718.94;5007845;28;20356;-92
2021/03/02 08:36:57;;;;;;;22.57;6.63;;;;;;;0.90;100.00;102719.63;5016357;28;20372;-92
2021/03/02 08:39:39;;;;;;;18.57;5.87;;;;;;;0.75;100.00;102733.97;4999644;28;20814;-92
2021/03/02 08:42:17;;;;;;;17.20;6.93;;;;;;;0.84;100.00;102761.25;4993809;28;20766;-91
2021/03/02 08:44:49;;;;;;;14.33;5.53;;;;;;;0.84;100.00;102762.94;5016321;28;20288;-91
2021/03/02 08:47:51;;;;;;;18.83;6.03;;;;;;;0.90;100.00;102735.09;5017866;28;20825;-92
2021/03/02 08:50:39;;;;;;;20.92;6.15;;;;;;;1.15;100.00;102733.50;5006007;28;20361;-91
2021/03/02 08:53:40;;;;;;;16.80;5.53;;;;;;;1.44;100.00;102769.09;5006251;28;20086;-92
2021/03/02 08:56:38;;;;;;;20.13;6.13;;;;;;;1.26;100.00;102757.47;5012305;28;20034;-92
2021/03/02 08:59:31;;;;;;;20.60;6.43;;;;;;;1.32;100.00;102762.16;5015256;28;20360;-92
2021/03/02 09:02:41;;;;;;;16.03;5.27;;;;;;;1.13;100.00;102734.19;5016614;28;20292;-92
2021/03/02 09:05:18;;;;;;;20.03;6.23;;;;;;;1.28;100.00;102760.16;4999262;28;20332;-92
2021/03/02 09:08:11;;;;;;;22.80;6.70;;;;;;;1.51;100.00;102770.44;5007674;28;20308;-91
2021/03/02 09:10:52;;;;;;;20.00;7.07;;;;;;;1.49;100.00;102756.56;5012062;28;20311;-92
2021/03/02 09:13:58;;;;;;;24.87;8.27;;;;;;;1.59;100.00;102737.47;5013310;28;20285;-92
2021/03/02 09:17:06;;;;;;;18.10;6.80;;;;;;;1.89;100.00;102749.94;5016834;28;20300;-91
2021/03/02 09:20:08;;;;;;;16.07;4.87;;;;;;;1.89;100.00;102760.25;5012863;28;20367;-92
2021/03/02 09:23:06;;;;;;;19.25;6.32;;;;;;;1.80;100.00;102748.38;5025228;28;20281;-92
2021/03/02 09:25:53;;;;;;;23.60;7.53;;;;;;;1.95;100.00;102757.22;5009055;28;20096;-92
2021/03/02 09:30:59;;;;;;;21.37;6.63;;;;;;;2.27;100.00;102757.72;5011316;28;20309;-69
2021/03/02 09:33:25;;;;;;;19.87;6.27;;;;;;;2.35;100.00;102754.00;5013646;28;20284;-68
2021/03/02 09:35:50;;;;;;;16.17;5.60;;;;;;;2.55;100.00;102754.44;5013616;28;20053;-69
2021/03/02 09:38:28;;;;;;;18.10;6.33;;;;;;;2.57;100.00;102761.50;5013769;28;20025;-69
2021/03/02 09:40:54;;;;;;;15.47;6.03;;;;;;;2.62;100.00;102761.78;5012928;28;20053;-69
2021/03/02 09:43:19;;;;;;;18.47;6.17;;;;;;;2.70;100.00;102757.16;5012879;28;20307;-69
2021/03/02 09:45:54;;;;;;;18.17;6.20;;;;;;;2.58;100.00;102752.06;5013449;28;20041;-69
2021/03/02 09:48:20;;;;;;;17.73;6.10;;;;;;;2.62;100.00;102756.63;5013991;28;20485;-69
2021/03/02 09:50:45;;;;;;;16.23;5.80;;;;;;;2.68;100.00;102759.63;5018374;28;20297;-69
2021/03/02 09:53:12;;;;;;;15.43;5.50;;;;;;;2.61;100.00;102754.84;5013445;28;20030;-69
2021/03/02 09:55:38;;;;;;;16.17;6.07;;;;;;;2.75;100.00;102751.47;5013105;28;20026;-69
2021/03/02 09:58:07;;;;;;;17.00;5.93;;;;;;;2.81;100.00;102757.06;5013416;28;20269;-68
2021/03/02 10:00:49;;;;;;;14.87;5.90;;;;;;;3.02;100.00;102751.50;5013001;28;20409;-69
2021/03/02 10:03:21;;;;;;;17.75;6.50;;;;;;;3.31;100.00;102749.13;5014582;28;20680;-69
2021/03/02 10:05:57;;;;;;;16.10;6.45;;;;;;;3.37;100.00;102746.91;5013145;28;20044;-69
2021/03/02 10:08:25;;;;;;;15.80;5.63;;;;;;;3.47;100.00;102746.69;5012647;28;20089;-69
2021/03/02 10:10:55;;;;;;;15.77;6.13;;;;;;;3.39;100.00;102742.75;5016485;28;20283;-69
2021/03/02 10:13:38;;;;;;;11.20;4.60;;;;;;;3.39;100.00;102737.59;5012026;28;20288;-69
2021/03/02 10:16:13;;;;;;;;;;;;;;;3.49;100.00;102745.09;5015508;28;20283;-69
2021/03/02 10:18:52;;;;;;;15.53;5.80;;;;;;;3.66;100.00;102743.59;5012812;28;19914;-69
2021/03/02 10:21:19;;;;;;;14.60;5.17;;;;;;;3.77;100.00;102745.16;5014247;28;20275;-69
2021/03/02 10:23:57;;;;;;;14.97;5.27;;;;;;;3.99;100.00;102751.63;5011330;28;20285;-69
2021/03/02 10:26:31;;;;;;;16.43;5.87;;;;;;;4.19;100.00;102745.09;5012696;28;20292;-69
2021/03/02 10:28:57;;;;;;;15.10;5.77;;;;;;;4.23;100.00;102741.88;5012309;28;20285;-71
2021/03/02 10:31:23;;;;;;;13.60;5.47;;;;;;;4.15;100.00;102749.19;5012104;28;20284;-68
2021/03/02 10:33:49;;;;;;;13.93;5.57;;;;;;;4.17;100.00;102747.59;5009569;28;20979;-69
2021/03/02 10:36:29;;;;;;;14.00;5.17;;;;;;;4.43;100.00;102746.56;5013028;28;20028;-69
2021/03/02 10:38:57;;;;;;;11.97;4.67;;;;;;;4.65;100.00;102753.91;5011918;28;20280;-69
2021/03/02 10:41:25;;;;;;;15.93;5.43;;;;;;;4.79;100.00;102752.13;5014659;28;20045;-69
2021/03/02 10:43:52;;;;;;;15.23;4.97;;;;;;;5.40;100.00;102753.91;5011862;28;20042;-69
2021/03/02 10:46:18;;;;;;;13.93;5.37;;;;;;;5.77;100.00;102756.81;5021141;28;20037;-69
2021/03/02 10:48:45;;;;;;;13.77;5.00;;;;;;;4.99;100.00;102757.66;5014821;28;20030;-69
2021/03/02 10:51:11;;;;;;;12.40;4.93;;;;;;;4.81;100.00;102755.69;5012581;28;20025;-69
2021/03/02 10:53:37;;;;;;;15.37;4.83;;;;;;;4.64;100.00;102757.31;5011891;28;20080;-69
2021/03/02 10:56:02;;;;;;;12.37;5.00;;;;;;;4.55;100.00;102762.81;5012244;28;20033;-69
2021/03/02 10:58:28;;;;;;;14.40;5.33;;;;;;;4.76;100.00;102762.31;5012162;28;20413;-69
2021/03/02 11:00:55;;;;;;;16.67;5.53;;;;;;;5.09;100.00;102753.91;5017110;28;20088;-69
2021/03/02 11:03:21;;;;;;;12.13;4.60;;;;;;;5.43;100.00;102750.56;5013913;28;20035;-69
2021/03/02 11:05:47;;;;;;;13.10;5.27;;;;;;;5.57;100.00;102755.75;5016604;28;20527;-69
2021/03/02 11:08:13;;;;;;;15.47;5.60;;;;;;;5.40;100.00;102748.72;5014806;28;20034;-69
2021/03/02 11:10:38;;;;;;;14.73;5.30;;;;;;;5.34;100.00;102742.31;5015449;28;20056;-69
2021/03/02 11:13:04;;;;;;;15.43;5.23;;;;;;;5.19;100.00;102735.44;5014653;28;20189;-69
2021/03/02 11:15:29;;;;;;;15.47;4.90;;;;;;;4.94;100.00;102737.44;5013759;28;20482;-69
2021/03/02 11:17:55;;;;;;;15.13;5.33;;;;;;;4.58;100.00;102726.72;5012445;28;20382;-69
2021/03/02 11:20:21;;;;;;;12.47;5.33;;;;;;;4.44;100.00;102725.03;5013312;28;20533;-69
2021/03/02 11:22:47;;;;;;;14.57;5.20;;;;;;;4.42;100.00;102716.28;5015200;28;20038;-69
2021/03/02 11:25:17;;;;;;;14.73;5.20;;;;;;;4.45;100.00;102716.44;5011721;28;20041;-69
2021/03/02 11:27:46;;;;;;;19.83;5.60;;;;;;;4.50;100.00;102712.44;5010423;28;20381;-69
2021/03/02 11:30:14;;;;;;;16.43;6.37;;;;;;;4.69;100.00;102696.25;5002771;28;20653;-69
2021/03/02 11:32:41;;;;;;;14.87;5.60;;;;;;;4.81;100.00;102709.03;5014038;28;20325;-69
2021/03/02 11:35:08;;;;;;;16.80;6.23;;;;;;;4.81;100.00;102693.47;5011518;28;20269;-69
2021/03/02 11:37:36;;;;;;;15.23;5.53;;;;;;;4.85;100.00;102691.16;5023459;28;20303;-69
2021/03/02 11:40:02;;;;;;;17.70;6.53;;;;;;;4.91;100.00;102690.59;5011720;28;20288;-69
2021/03/02 11:42:28;;;;;;;17.17;6.97;;;;;;;5.00;100.00;102680.75;5022175;28;20276;-69
2021/03/02 11:44:53;;;;;;;16.00;6.33;;;;;;;5.11;100.00;102677.06;5011625;28;20289;-69
2021/03/02 11:47:18;;;;;;;13.87;5.33;;;;;;;5.20;100.00;102674.06;5015183;28;20037;-69
2021/03/02 11:49:44;;;;;;;16.80;6.37;;;;;;;5.34;100.00;102672.25;5011658;28;20432;-69
2021/03/02 11:52:09;;;;;;;14.33;5.27;;;;;;;5.47;100.00;102679.91;5019662;28;20022;-69